Time;durP1;ratioP1;P1;durP2;ratioP2;P2;SDS_P1;SDS_P2;PMS_P1;PMS_P2;Temp;Humidity;BMP_temperature;BMP_pressure;BME280_temperature;BME280_humidity;BME280_pressure;Samples;Min_cycle;Max_cycle;Signal;HPM_P1;HPM_P2
2023/01/05 00:02:18;;;;;;;1.15;0.32;;;;;;;;;;5078197;28;20286;-82
2023/01/05 00:04:44;;;;;;;2.83;0.43;;;;;;;;;;5077887;28;20090;-81
2023/01/05 00:07:09;;;;;;;0.88;0.38;;;;;;;;;;5078289;28;20262;-83
2023/01/05 00:09:34;;;;;;;1.50;0.40;;;;;;;;;;5078193;28;20031;-82
2023/01/05 00:23:01;;;;;;;1.33;0.32;;;;;;;;;;5079443;28;20027;-83
2023/01/05 00:25:32;;;;;;;3.33;0.52;;;;;;;;;;5078713;28;20099;-81
2023/01/05 00:27:58;;;;;;;1.65;0.30;;;;;;;;;;5060435;28;20024;-81
2023/01/05 00:30:27;;;;;;;4.07;0.70;;;;;;;;;;5060276;28;20077;-80
2023/01/05 00:32:53;;;;;;;1.17;0.38;;;;;;;;;;5078292;28;20036;-80
2023/01/05 00:35:18;;;;;;;2.95;0.52;;;;;;;;;;5078436;28;20113;-83
2023/01/05 00:37:44;;;;;;;3.30;0.57;;;;;;;;;;5078096;28;20031;-82
2023/01/05 00:40:12;;;;;;;2.72;0.43;;;;;;;;;;5078343;28;20036;-82
2023/01/05 00:42:38;;;;;;;2.28;0.57;;;;;;;;;;5078085;28;20035;-82
2023/01/05 00:45:09;;;;;;;5.53;0.98;;;;;;;;;;5077937;28;20032;-82
2023/01/05 00:47:34;;;;;;;3.92;0.70;;;;;;;;;;5077904;28;20036;-82
2023/01/05 00:49:59;;;;;;;2.15;0.57;;;;;;;;;;5059583;28;20031;-81
2023/01/05 00:52:25;;;;;;;1.00;0.50;;;;;;;;;;5078131;28;20031;-82
2023/01/05 00:54:50;;;;;;;3.38;0.55;;;;;;;;;;5077654;28;20025;-82
2023/01/05 00:57:15;;;;;;;2.33;0.63;;;;;;;;;;5077712;28;20021;-83
2023/01/05 00:59:41;;;;;;;2.73;0.50;;;;;;;;;;5077637;28;20383;-80
2023/01/05 01:02:06;;;;;;;1.35;0.43;;;;;;;;;;5077279;28;20614;-82
2023/01/05 01:04:33;;;;;;;3.65;0.60;;;;;;;;;;5077703;28;20021;-82
2023/01/05 01:06:58;;;;;;;3.40;0.68;;;;;;;;;;5077354;28;20029;-82
2023/01/05 01:09:23;;;;;;;1.00;0.40;;;;;;;;;;5078195;28;20359;-82
2023/01/05 01:11:49;;;;;;;3.45;0.70;;;;;;;;;;5059132;28;20024;-81
2023/01/05 01:14:14;;;;;;;1.60;0.47;;;;;;;;;;5077832;28;20489;-82
2023/01/05 01:16:41;;;;;;;2.05;0.60;;;;;;;;;;5077666;28;20753;-82
2023/01/05 01:19:06;;;;;;;2.25;0.60;;;;;;;;;;5077531;28;20032;-82
2023/01/05 01:21:31;;;;;;;3.70;0.98;;;;;;;;;;5077614;28;20024;-81
2023/01/05 01:23:57;;;;;;;1.48;0.32;;;;;;;;;;5077148;28;20024;-81
2023/01/05 01:26:22;;;;;;;2.27;0.60;;;;;;;;;;5077777;28;20032;-82
2023/01/05 01:28:47;;;;;;;1.23;0.47;;;;;;;;;;5059442;28;20265;-82
2023/01/05 01:31:13;;;;;;;3.25;0.57;;;;;;;;;;5077249;28;20360;-81
2023/01/05 01:33:39;;;;;;;0.38;0.30;;;;;;;;;;5078049;28;20028;-83
2023/01/05 01:36:05;;;;;;;1.50;0.75;;;;;;;;;;5077300;28;20028;-82
2023/01/05 01:38:31;;;;;;;1.33;0.60;;;;;;;;;;5077953;28;20044;-81
2023/01/05 01:40:56;;;;;;;1.55;0.52;;;;;;;;;;5076816;28;20017;-82
2023/01/05 01:43:44;;;;;;;4.87;0.73;;;;;;;;;;5059043;28;20020;-80
2023/01/05 01:46:11;;;;;;;1.48;0.63;;;;;;;;;;5058820;28;20266;-82
2023/01/05 01:48:39;;;;;;;4.97;1.15;;;;;;;;;;5059280;28;20107;-83
2023/01/05 01:51:09;;;;;;;3.33;1.17;;;;;;;;;;5059217;28;20082;-83
2023/01/05 01:53:39;;;;;;;3.88;0.90;;;;;;;;;;5077585;28;20028;-81
2023/01/05 01:56:08;;;;;;;3.03;0.70;;;;;;;;;;5077652;28;20043;-82
2023/01/05 01:58:33;;;;;;;3.63;0.75;;;;;;;;;;5077256;28;20524;-82
2023/01/05 02:00:59;;;;;;;3.08;0.75;;;;;;;;;;5077323;28;20020;-80
2023/01/05 02:03:26;;;;;;;4.60;0.85;;;;;;;;;;5077303;28;20024;-80
2023/01/05 02:05:53;;;;;;;2.17;0.55;;;;;;;;;;5076676;28;20028;-83
2023/01/05 02:08:24;;;;;;;3.58;0.73;;;;;;;;;;5076097;28;20474;-81
2023/01/05 02:10:55;;;;;;;2.78;0.90;;;;;;;;;;5077129;28;20474;-81
2023/01/05 02:13:45;;;;;;;2.30;0.80;;;;;;;;;;5077203;28;20074;-83
2023/01/05 02:16:48;;;;;;;4.03;0.80;;;;;;;;;;5077007;28;20020;-83
2023/01/05 02:20:05;;;;;;;4.03;0.90;;;;;;;;;;5058721;28;20130;-82
2023/01/05 02:22:53;;;;;;;4.50;0.90;;;;;;;;;;5025515;28;20044;-81
2023/01/05 02:25:51;;;;;;;4.03;0.80;;;;;;;;;;5075978;28;20390;-85
2023/01/05 02:28:24;;;;;;;2.80;0.80;;;;;;;;;;5077035;28;20024;-82
2023/01/05 02:31:03;;;;;;;2.53;0.75;;;;;;;;;;5058582;28;20054;-81
2023/01/05 02:33:59;;;;;;;2.13;0.80;;;;;;;;;;5062592;28;20101;-83
2023/01/05 02:36:49;;;;;;;5.47;1.00;;;;;;;;;;5080394;28;20024;-82
2023/01/05 02:39:17;;;;;;;4.22;1.00;;;;;;;;;;5080521;28;20497;-82
2023/01/05 02:41:57;;;;;;;4.60;0.90;;;;;;;;;;5080651;28;20040;-82
2023/01/05 02:44:22;;;;;;;7.30;1.30;;;;;;;;;;5080128;28;20039;-84
2023/01/05 02:47:05;;;;;;;6.47;0.93;;;;;;;;;;5079971;28;20032;-84
2023/01/05 02:49:33;;;;;;;4.93;1.17;;;;;;;;;;5080272;28;20037;-81
2023/01/05 02:52:01;;;;;;;4.22;0.90;;;;;;;;;;5079804;28;20035;-80
2023/01/05 02:54:33;;;;;;;4.32;0.93;;;;;;;;;;5079779;28;20473;-82
2023/01/05 02:57:45;;;;;;;5.32;1.02;;;;;;;;;;5080244;28;20111;-83
2023/01/05 03:00:10;;;;;;;4.25;0.80;;;;;;;;;;5079098;28;20032;-82
2023/01/05 03:02:37;;;;;;;2.95;0.85;;;;;;;;;;5079680;28;20028;-81
2023/01/05 03:05:07;;;;;;;3.42;0.80;;;;;;;;;;5078895;28;20055;-81
2023/01/05 03:07:38;;;;;;;2.40;0.60;;;;;;;;;;5079888;28;20052;-82
2023/01/05 03:13:40;;;;;;;2.97;0.90;;;;;;;;;;5079617;28;20072;-82
2023/01/05 03:16:01;;;;;;;6.18;0.95;;;;;;;;;;5034254;28;20024;-81
2023/01/05 03:18:27;;;;;;;2.30;0.65;;;;;;;;;;5080008;28;20381;-83
2023/01/05 03:20:54;;;;;;;4.50;1.10;;;;;;;;;;5079272;28;20028;-83
2023/01/05 03:37:49;;;;;;;3.75;0.85;;;;;;;;;;5079359;28;20028;-81
2023/01/05 03:40:23;;;;;;;3.10;0.85;;;;;;;;;;5079166;28;20035;-82
2023/01/05 03:42:48;;;;;;;6.65;1.13;;;;;;;;;;5078701;28;20024;-84
2023/01/05 03:45:15;;;;;;;4.20;0.93;;;;;;;;;;5061031;28;20059;-81
2023/01/05 03:47:40;;;;;;;6.57;1.25;;;;;;;;;;5078764;28;20020;-81
2023/01/05 03:50:06;;;;;;;3.40;0.93;;;;;;;;;;5078672;28;20392;-83
2023/01/05 03:52:31;;;;;;;3.67;1.13;;;;;;;;;;5078842;28;20330;-82
2023/01/05 03:54:56;;;;;;;5.57;0.97;;;;;;;;;;5079035;28;20028;-82
2023/01/05 03:57:21;;;;;;;5.80;1.27;;;;;;;;;;5061013;28;20303;-81
2023/01/05 03:59:47;;;;;;;4.10;1.13;;;;;;;;;;5078808;28;20261;-81
2023/01/05 04:02:12;;;;;;;6.63;1.20;;;;;;;;;;5078356;28;20037;-81
2023/01/05 04:04:37;;;;;;;6.63;1.15;;;;;;;;;;5077997;28;20268;-82
2023/01/05 04:07:02;;;;;;;5.03;1.03;;;;;;;;;;5078667;28;20023;-81
2023/01/05 04:09:27;;;;;;;4.63;1.37;;;;;;;;;;5078703;28;20316;-81
2023/01/05 04:11:53;;;;;;;6.13;1.27;;;;;;;;;;5078071;28;20289;-82
2023/01/05 04:14:18;;;;;;;6.97;1.30;;;;;;;;;;5059757;28;20273;-84
2023/01/05 04:16:43;;;;;;;5.97;1.17;;;;;;;;;;5078328;28;20432;-82
2023/01/05 04:19:09;;;;;;;2.97;0.90;;;;;;;;;;5077908;28;20020;-80
2023/01/05 04:21:35;;;;;;;10.32;1.33;;;;;;;;;;5078874;28;20253;-82
2023/01/05 04:24:00;;;;;;;10.80;1.38;;;;;;;;;;5077927;28;20031;-82
2023/01/05 04:26:25;;;;;;;7.40;1.15;;;;;;;;;;5078115;28;20046;-82
2023/01/05 04:28:50;;;;;;;7.03;1.30;;;;;;;;;;5059697;28;20067;-83
2023/01/05 04:31:16;;;;;;;5.43;0.87;;;;;;;;;;5077525;28;20082;-81
2023/01/05 04:33:44;;;;;;;6.37;1.17;;;;;;;;;;5077379;28;20253;-82
2023/01/05 04:36:09;;;;;;;5.22;1.05;;;;;;;;;;5059514;28;20261;-83
2023/01/05 04:38:34;;;;;;;6.53;1.38;;;;;;;;;;5077494;28;20474;-81
2023/01/05 04:41:00;;;;;;;7.07;1.20;;;;;;;;;;5077669;28;20086;-82
2023/01/05 04:43:25;;;;;;;5.95;0.98;;;;;;;;;;5059960;28;20360;-82
2023/01/05 04:45:50;;;;;;;5.63;1.00;;;;;;;;;;5078243;28;20394;-84
2023/01/05 04:48:16;;;;;;;4.07;1.23;;;;;;;;;;5078200;28;20606;-82
2023/01/05 04:50:42;;;;;;;7.75;1.17;;;;;;;;;;5059642;28;20620;-82
2023/01/05 04:53:07;;;;;;;2.85;0.90;;;;;;;;;;5059611;28;20434;-82
2023/01/05 04:55:32;;;;;;;6.95;1.25;;;;;;;;;;5059052;28;20048;-81
2023/01/05 04:57:57;;;;;;;5.47;0.97;;;;;;;;;;5077583;28;20078;-80
2023/01/05 05:00:23;;;;;;;2.73;0.93;;;;;;;;;;5078291;28;20261;-81
2023/01/05 05:02:48;;;;;;;5.60;1.20;;;;;;;;;;5077773;28;20336;-82
2023/01/05 05:05:13;;;;;;;5.72;1.20;;;;;;;;;;5077440;28;20312;-81
2023/01/05 05:07:38;;;;;;;5.28;1.10;;;;;;;;;;5078241;28;20024;-82
2023/01/05 05:10:04;;;;;;;5.43;1.30;;;;;;;;;;5077084;28;20454;-82
2023/01/05 05:12:29;;;;;;;5.65;1.20;;;;;;;;;;5059460;28;20020;-81
2023/01/05 05:14:55;;;;;;;4.80;1.20;;;;;;;;;;5059538;28;20028;-83
2023/01/05 05:17:20;;;;;;;5.83;1.67;;;;;;;;;;5060237;28;20477;-81
2023/01/05 05:19:45;;;;;;;6.23;1.53;;;;;;;;;;5077744;28;20743;-81
2023/01/05 05:22:10;;;;;;;9.23;1.47;;;;;;;;;;5078464;28;20726;-80
2023/01/05 05:24:36;;;;;;;6.40;1.43;;;;;;;;;;5077866;28;20856;-83
2023/01/05 05:27:01;;;;;;;8.45;1.52;;;;;;;;;;5077520;28;20749;-82
2023/01/05 05:29:26;;;;;;;7.55;1.38;;;;;;;;;;5060060;28;20077;-85
2023/01/05 05:31:52;;;;;;;4.83;1.10;;;;;;;;;;5078852;28;20032;-82
2023/01/05 05:34:17;;;;;;;5.70;1.50;;;;;;;;;;5078588;28;20269;-83
2023/01/05 05:36:43;;;;;;;4.15;1.17;;;;;;;;;;5078713;28;20024;-83
2023/01/05 05:39:12;;;;;;;6.32;1.00;;;;;;;;;;5060587;28;20020;-83
2023/01/05 05:41:37;;;;;;;2.65;0.90;;;;;;;;;;5078773;28;20082;-82
2023/01/05 05:44:03;;;;;;;6.30;1.23;;;;;;;;;;5078616;28;20502;-82
2023/01/05 05:46:28;;;;;;;7.10;1.17;;;;;;;;;;5079390;28;20283;-84
2023/01/05 05:48:55;;;;;;;3.70;0.90;;;;;;;;;;5080496;28;20058;-82
2023/01/05 05:51:20;;;;;;;6.13;1.33;;;;;;;;;;5079364;28;20064;-83
2023/01/05 05:53:45;;;;;;;4.80;1.40;;;;;;;;;;5078350;28;20070;-82
2023/01/05 05:56:10;;;;;;;4.97;1.00;;;;;;;;;;5080410;28;20086;-84
2023/01/05 05:58:36;;;;;;;3.80;1.00;;;;;;;;;;5061652;28;20253;-83
2023/01/05 06:01:01;;;;;;;7.10;1.30;;;;;;;;;;5080057;28;20249;-84
2023/01/05 06:03:26;;;;;;;6.90;1.40;;;;;;;;;;5061042;28;20318;-82
2023/01/05 06:05:52;;;;;;;6.97;1.83;;;;;;;;;;5077594;28;20033;-82
2023/01/05 06:08:17;;;;;;;5.63;1.20;;;;;;;;;;5082104;28;20265;-81
2023/01/05 06:10:42;;;;;;;6.13;1.40;;;;;;;;;;5081949;28;20036;-81
2023/01/05 06:13:07;;;;;;;9.45;1.40;;;;;;;;;;5082785;28;20249;-82
2023/01/05 06:15:32;;;;;;;4.83;1.43;;;;;;;;;;5079991;28;20115;-83
2023/01/05 06:17:58;;;;;;;6.13;1.60;;;;;;;;;;5080069;28;20293;-82
2023/01/05 06:20:23;;;;;;;8.57;1.30;;;;;;;;;;5080833;28;20257;-82
2023/01/05 06:22:48;;;;;;;6.70;1.27;;;;;;;;;;5080553;28;20260;-83
2023/01/05 06:25:13;;;;;;;4.53;1.17;;;;;;;;;;5079968;28;20249;-83
2023/01/05 06:27:39;;;;;;;3.70;1.25;;;;;;;;;;5080447;28;20268;-81
2023/01/05 06:30:04;;;;;;;4.65;1.08;;;;;;;;;;5062338;28;20051;-82
2023/01/05 06:32:30;;;;;;;4.15;1.17;;;;;;;;;;5062239;28;20116;-83
2023/01/05 06:34:55;;;;;;;9.25;1.40;;;;;;;;;;5080530;28;20027;-82
2023/01/05 06:37:20;;;;;;;4.13;1.48;;;;;;;;;;5080618;28;20070;-83
2023/01/05 06:39:45;;;;;;;7.90;1.30;;;;;;;;;;5062354;28;20048;-83
2023/01/05 06:42:11;;;;;;;7.63;1.63;;;;;;;;;;5062199;28;20036;-82
2023/01/05 06:44:36;;;;;;;5.57;1.20;;;;;;;;;;5080018;28;20260;-81
2023/01/05 06:47:01;;;;;;;5.10;1.13;;;;;;;;;;5062327;28;20020;-82
2023/01/05 06:49:26;;;;;;;7.25;1.40;;;;;;;;;;5080365;28;20021;-82
2023/01/05 06:51:52;;;;;;;8.00;1.48;;;;;;;;;;5061727;28;20059;-82
2023/01/05 06:54:17;;;;;;;5.88;1.35;;;;;;;;;;5080000;28;20366;-81
2023/01/05 06:56:42;;;;;;;6.75;1.65;;;;;;;;;;5079937;28;20024;-83
2023/01/05 06:59:10;;;;;;;5.17;1.00;;;;;;;;;;5080036;28;20038;-85
2023/01/05 07:01:35;;;;;;;6.45;1.40;;;;;;;;;;5061729;28;20256;-82
2023/01/05 07:04:00;;;;;;;3.97;1.20;;;;;;;;;;5079710;28;20021;-82
2023/01/05 07:06:26;;;;;;;4.37;1.00;;;;;;;;;;5080650;28;20032;-83
2023/01/05 07:08:51;;;;;;;2.08;0.93;;;;;;;;;;5079537;28;20619;-83
2023/01/05 07:11:16;;;;;;;7.23;1.20;;;;;;;;;;5080125;28;20040;-84
2023/01/05 07:13:45;;;;;;;4.13;1.40;;;;;;;;;;5079804;28;20318;-82
2023/01/05 07:16:10;;;;;;;5.78;1.25;;;;;;;;;;5061200;28;20303;-82
2023/01/05 07:18:36;;;;;;;3.17;1.00;;;;;;;;;;5079458;28;20020;-82
2023/01/05 07:21:01;;;;;;;5.93;1.37;;;;;;;;;;5076796;28;20029;-81
2023/01/05 07:23:27;;;;;;;5.70;1.50;;;;;;;;;;5076663;28;20260;-81
2023/01/05 07:25:52;;;;;;;7.20;1.77;;;;;;;;;;5076274;28;20029;-80
2023/01/05 07:28:17;;;;;;;6.27;1.33;;;;;;;;;;5076185;28;20036;-82
2023/01/05 07:30:49;;;;;;;7.17;1.27;;;;;;;;;;5076081;28;20265;-81
2023/01/05 07:33:14;;;;;;;8.38;1.10;;;;;;;;;;5076746;28;20302;-82
2023/01/05 07:35:39;;;;;;;8.13;1.60;;;;;;;;;;5057681;28;20025;-83
2023/01/05 07:38:04;;;;;;;7.23;1.67;;;;;;;;;;5075956;28;20345;-81
2023/01/05 07:40:30;;;;;;;6.87;1.43;;;;;;;;;;5058289;28;20307;-81
2023/01/05 07:42:55;;;;;;;5.50;1.43;;;;;;;;;;5076228;28;20260;-81
2023/01/05 07:45:20;;;;;;;3.83;1.27;;;;;;;;;;5076085;28;20261;-80
2023/01/05 07:47:45;;;;;;;4.07;1.30;;;;;;;;;;5076731;28;20265;-82
2023/01/05 07:50:11;;;;;;;7.13;1.58;;;;;;;;;;5059341;28;20253;-83
2023/01/05 07:52:37;;;;;;;4.50;1.08;;;;;;;;;;5058371;28;20115;-83
2023/01/05 07:55:03;;;;;;;7.85;1.42;;;;;;;;;;5057725;28;20021;-83
2023/01/05 07:57:28;;;;;;;5.18;1.33;;;;;;;;;;5076017;28;20423;-86
2023/01/05 07:59:54;;;;;;;2.97;1.10;;;;;;;;;;5059342;28;20040;-84
2023/01/05 08:02:19;;;;;;;6.27;1.37;;;;;;;;;;5057504;28;20119;-81
2023/01/05 08:04:45;;;;;;;4.93;1.50;;;;;;;;;;5075305;28;20289;-82
2023/01/05 08:07:10;;;;;;;8.70;1.50;;;;;;;;;;5075231;28;20051;-81
2023/01/05 08:12:22;;;;;;;6.28;1.38;;;;;;;;;;5075849;28;20311;-84
2023/01/05 08:14:48;;;;;;;5.68;1.30;;;;;;;;;;5075262;28;20028;-82
2023/01/05 08:17:13;;;;;;;7.47;1.40;;;;;;;;;;5057464;28;20069;-83
2023/01/05 08:19:41;;;;;;;4.63;1.30;;;;;;;;;;5075027;28;20020;-82
2023/01/05 08:22:06;;;;;;;6.88;1.40;;;;;;;;;;5057313;28;20021;-81
2023/01/05 08:24:31;;;;;;;7.50;1.30;;;;;;;;;;5057389;28;20519;-81
2023/01/05 08:26:56;;;;;;;4.63;1.30;;;;;;;;;;5074964;28;20078;-81
2023/01/05 08:29:22;;;;;;;5.15;1.17;;;;;;;;;;5074526;28;20111;-82
2023/01/05 08:31:47;;;;;;;4.78;1.33;;;;;;;;;;5056772;28;20440;-80
2023/01/05 08:34:12;;;;;;;6.22;1.50;;;;;;;;;;5056380;28;20059;-81
2023/01/05 08:36:38;;;;;;;7.55;1.13;;;;;;;;;;5074864;28;20020;-82
2023/01/05 08:39:04;;;;;;;4.97;1.20;;;;;;;;;;5074674;28;20016;-82
2023/01/05 08:41:34;;;;;;;5.90;1.27;;;;;;;;;;5057073;28;20565;-81
2023/01/05 08:44:02;;;;;;;5.95;1.40;;;;;;;;;;5074786;28;20047;-83
2023/01/05 08:46:31;;;;;;;4.97;1.00;;;;;;;;;;5074956;28;20028;-83
2023/01/05 08:48:58;;;;;;;4.80;1.10;;;;;;;;;;5075744;28;20554;-82
2023/01/05 08:51:24;;;;;;;4.95;1.20;;;;;;;;;;5075357;28;20152;-83
2023/01/05 08:53:49;;;;;;;3.45;1.30;;;;;;;;;;5074699;28;20060;-82
2023/01/05 08:56:15;;;;;;;3.35;1.02;;;;;;;;;;5076314;28;20097;-82
2023/01/05 08:58:41;;;;;;;3.92;1.30;;;;;;;;;;5075368;28;20470;-82
2023/01/05 09:01:08;;;;;;;6.32;1.48;;;;;;;;;;5075561;28;20032;-81
2023/01/05 09:03:33;;;;;;;6.63;1.20;;;;;;;;;;5074677;28;20591;-83
2023/01/05 09:06:02;;;;;;;6.10;1.40;;;;;;;;;;5057608;28;20059;-83
2023/01/05 09:08:29;;;;;;;4.38;1.33;;;;;;;;;;5075211;28;20444;-82
2023/01/05 09:10:54;;;;;;;9.80;1.58;;;;;;;;;;5075851;28;20107;-83
2023/01/05 09:13:20;;;;;;;4.55;1.20;;;;;;;;;;5075809;28;20078;-81
2023/01/05 09:15:45;;;;;;;5.95;1.83;;;;;;;;;;5057684;28;20028;-81
2023/01/05 09:18:10;;;;;;;3.43;1.07;;;;;;;;;;5057787;28;20486;-84
2023/01/05 09:20:35;;;;;;;4.47;1.20;;;;;;;;;;5075611;28;20272;-82
2023/01/05 09:23:00;;;;;;;6.60;1.43;;;;;;;;;;5057805;28;20754;-81
2023/01/05 09:25:26;;;;;;;5.90;1.50;;;;;;;;;;5075564;28;20272;-81
2023/01/05 09:27:51;;;;;;;5.50;1.20;;;;;;;;;;5076839;28;20265;-81
2023/01/05 09:30:16;;;;;;;4.00;1.30;;;;;;;;;;5057745;28;20789;-81
2023/01/05 09:32:41;;;;;;;2.67;0.93;;;;;;;;;;5058198;28;20285;-81
2023/01/05 09:35:07;;;;;;;3.45;1.10;;;;;;;;;;5076118;28;20265;-80
2023/01/05 09:37:32;;;;;;;4.70;1.25;;;;;;;;;;5058442;28;20468;-80
2023/01/05 09:39:58;;;;;;;6.60;1.07;;;;;;;;;;5075891;28;20062;-83
2023/01/05 09:42:26;;;;;;;4.95;1.20;;;;;;;;;;5080660;28;20257;-82
2023/01/05 09:44:55;;;;;;;6.03;1.42;;;;;;;;;;5080127;28;20027;-81
2023/01/05 09:47:33;;;;;;;6.47;1.50;;;;;;;;;;5063150;28;20024;-82
2023/01/05 09:50:00;;;;;;;6.85;1.40;;;;;;;;;;5080177;28;20046;-81
2023/01/05 09:52:25;;;;;;;5.45;1.25;;;;;;;;;;5078950;28;20033;-81
2023/01/05 09:54:50;;;;;;;3.90;1.30;;;;;;;;;;5079031;28;20470;-81
2023/01/05 09:57:27;;;;;;;7.03;1.45;;;;;;;;;;5081304;28;20024;-81
2023/01/05 09:59:57;;;;;;;5.05;1.35;;;;;;;;;;5063516;28;20111;-81
2023/01/05 10:02:31;;;;;;;4.82;1.08;;;;;;;;;;5081346;28;20023;-81
2023/01/05 10:04:59;;;;;;;4.20;1.10;;;;;;;;;;5081713;28;20550;-83
2023/01/05 10:07:44;;;;;;;5.70;1.17;;;;;;;;;;5081435;28;20047;-81
2023/01/05 10:10:42;;;;;;;5.60;1.20;;;;;;;;;;5063810;28;20029;-82
2023/01/05 10:13:20;;;;;;;2.58;0.73;;;;;;;;;;5081587;28;20456;-81
2023/01/05 10:15:50;;;;;;;4.53;1.05;;;;;;;;;;5062705;28;20059;-83
2023/01/05 10:18:19;;;;;;;3.42;0.85;;;;;;;;;;5080187;28;20043;-80
2023/01/05 10:21:23;;;;;;;3.58;1.00;;;;;;;;;;5080514;28;20036;-81
2023/01/05 10:23:51;;;;;;;2.80;0.80;;;;;;;;;;5072451;28;20039;-83
2023/01/05 10:26:26;;;;;;;3.05;0.98;;;;;;;;;;5063216;28;20478;-82
2023/01/05 10:29:12;;;;;;;4.38;1.10;;;;;;;;;;5081689;28;20024;-81
2023/01/05 10:32:10;;;;;;;3.55;0.93;;;;;;;;;;5080800;28;20021;-83
2023/01/05 10:34:51;;;;;;;2.17;0.70;;;;;;;;;;5077661;28;20071;-82
2023/01/05 10:37:33;;;;;;;2.38;0.73;;;;;;;;;;5062369;28;20127;-84
2023/01/05 10:40:07;;;;;;;4.32;1.00;;;;;;;;;;5062683;28;20031;-83
2023/01/05 10:43:03;;;;;;;2.33;0.90;;;;;;;;;;5080801;28;20077;-83
2023/01/05 10:45:30;;;;;;;2.97;0.85;;;;;;;;;;5080312;28;20024;-83
2023/01/05 10:47:56;;;;;;;2.22;0.90;;;;;;;;;;5080883;28;20446;-82
2023/01/05 10:50:37;;;;;;;2.38;0.85;;;;;;;;;;5080980;28;20060;-82
2023/01/05 10:53:16;;;;;;;3.22;0.73;;;;;;;;;;5062949;28;20020;-84
2023/01/05 10:55:50;;;;;;;2.67;0.88;;;;;;;;;;5081954;28;20096;-80
2023/01/05 10:58:26;;;;;;;3.75;1.15;;;;;;;;;;5063306;28;20512;-81
2023/01/05 11:01:02;;;;;;;2.90;1.08;;;;;;;;;;5080681;28;20033;-83
2023/01/05 11:03:35;;;;;;;2.50;1.20;;;;;;;;;;5079861;28;20032;-84
2023/01/05 11:06:00;;;;;;;6.65;1.55;;;;;;;;;;5079453;28;20103;-81
2023/01/05 11:08:28;;;;;;;3.50;1.13;;;;;;;;;;5061739;28;20461;-81
2023/01/05 11:10:56;;;;;;;3.78;1.17;;;;;;;;;;5079944;28;20099;-81
2023/01/05 11:13:27;;;;;;;5.57;1.17;;;;;;;;;;5080279;28;20035;-82
2023/01/05 11:15:55;;;;;;;5.10;1.40;;;;;;;;;;5062064;28;20103;-81
2023/01/05 11:18:30;;;;;;;5.78;1.50;;;;;;;;;;5078879;28;20063;-84
2023/01/05 11:21:06;;;;;;;3.08;1.10;;;;;;;;;;5079054;28;20051;-84
2023/01/05 11:23:41;;;;;;;4.82;1.20;;;;;;;;;;5078704;28;20039;-80
2023/01/05 11:26:33;;;;;;;3.78;1.05;;;;;;;;;;5079467;28;20496;-82
2023/01/05 11:29:12;;;;;;;2.55;1.23;;;;;;;;;;5078767;28;20028;-81
2023/01/05 11:31:46;;;;;;;4.70;1.20;;;;;;;;;;5065626;28;20053;-82
2023/01/05 11:34:30;;;;;;;10.02;1.00;;;;;;;;;;5068806;28;20047;-82
2023/01/05 11:36:58;;;;;;;5.45;1.20;;;;;;;;;;5068527;28;20025;-82
2023/01/05 11:39:30;;;;;;;7.30;1.38;;;;;;;;;;5078652;28;20032;-83
2023/01/05 11:42:14;;;;;;;3.33;1.02;;;;;;;;;;5060199;28;20056;-81
2023/01/05 11:44:47;;;;;;;4.80;1.10;;;;;;;;;;5077924;28;20029;-82
2023/01/05 11:47:21;;;;;;;3.25;1.02;;;;;;;;;;5060354;28;20078;-82
2023/01/05 11:49:47;;;;;;;3.25;0.98;;;;;;;;;;5078748;28;20543;-81
2023/01/05 11:52:25;;;;;;;3.58;0.93;;;;;;;;;;5078398;28;20025;-81
2023/01/05 11:54:50;;;;;;;3.67;1.00;;;;;;;;;;5079052;28;20024;-83
2023/01/05 11:57:19;;;;;;;2.80;1.23;;;;;;;;;;5078623;28;20074;-82
2023/01/05 11:59:45;;;;;;;2.63;0.90;;;;;;;;;;5078976;28;20036;-82
2023/01/05 12:02:34;;;;;;;3.17;1.17;;;;;;;;;;5079839;28;20406;-83
2023/01/05 12:05:39;;;;;;;2.35;0.90;;;;;;;;;;5077874;28;20028;-83
2023/01/05 12:08:11;;;;;;;2.97;1.10;;;;;;;;;;5079232;28;20039;-82
2023/01/05 12:10:54;;;;;;;5.13;1.10;;;;;;;;;;5079101;28;20040;-81
2023/01/05 12:13:41;;;;;;;1.70;0.77;;;;;;;;;;5078760;28;20091;-84
2023/01/05 12:16:25;;;;;;;5.85;1.08;;;;;;;;;;5079142;28;20036;-81
2023/01/05 12:18:56;;;;;;;;;;;;;;;;;;5079873;28;20148;-83
2023/01/05 12:21:25;;;;;;;4.30;1.05;;;;;;;;;;5060147;28;19908;-83
2023/01/05 12:24:31;;;;;;;4.45;1.13;;;;;;;;;;5060782;28;20020;-82
2023/01/05 12:27:11;;;;;;;2.65;0.80;;;;;;;;;;5060219;28;20048;-82
2023/01/05 12:29:51;;;;;;;3.47;0.95;;;;;;;;;;5078283;28;20021;-82
2023/01/05 12:32:32;;;;;;;2.50;0.95;;;;;;;;;;5078577;28;20423;-83
2023/01/05 12:35:10;;;;;;;3.78;0.77;;;;;;;;;;5060168;28;20020;-82
2023/01/05 12:37:45;;;;;;;2.83;1.00;;;;;;;;;;5078116;28;20055;-82
2023/01/05 12:40:25;;;;;;;4.55;0.90;;;;;;;;;;5060658;28;20024;-81
2023/01/05 12:43:07;;;;;;;2.72;0.88;;;;;;;;;;5077772;28;20027;-81
2023/01/05 12:45:49;;;;;;;2.50;0.77;;;;;;;;;;5077975;28;20429;-82
2023/01/05 12:48:23;;;;;;;6.35;0.77;;;;;;;;;;5060064;28;20031;-81
2023/01/05 12:50:56;;;;;;;2.63;0.80;;;;;;;;;;5059262;28;20032;-80
2023/01/05 12:53:34;;;;;;;9.15;1.25;;;;;;;;;;5076978;28;20025;-83
2023/01/05 12:56:11;;;;;;;3.10;0.77;;;;;;;;;;5059168;28;20043;-82
2023/01/05 12:58:40;;;;;;;2.25;0.60;;;;;;;;;;5076615;28;20079;-83
2023/01/05 13:01:17;;;;;;;1.17;0.68;;;;;;;;;;5078026;28;20040;-81
2023/01/05 13:03:57;;;;;;;5.60;0.70;;;;;;;;;;5077415;28;20021;-82
2023/01/05 13:06:25;;;;;;;2.45;1.00;;;;;;;;;;5077156;28;20086;-83
2023/01/05 13:08:54;;;;;;;1.98;0.70;;;;;;;;;;5077992;28;20028;-82
2023/01/05 13:11:40;;;;;;;3.78;0.82;;;;;;;;;;5078249;28;20063;-83
2023/01/05 13:14:15;;;;;;;5.03;1.20;;;;;;;;;;5077338;28;20079;-82
2023/01/05 13:16:51;;;;;;;3.95;1.10;;;;;;;;;;5077339;28;20385;-82
2023/01/05 13:19:25;;;;;;;3.88;1.00;;;;;;;;;;5077589;28;20089;-82
2023/01/05 13:21:52;;;;;;;4.13;0.95;;;;;;;;;;5077930;28;20029;-81
2023/01/05 13:24:33;;;;;;;2.67;0.90;;;;;;;;;;5077212;28;20070;-81
2023/01/05 13:27:00;;;;;;;2.85;0.75;;;;;;;;;;5077684;28;20025;-83
2023/01/05 13:29:30;;;;;;;2.70;0.80;;;;;;;;;;5077159;28;20108;-82
2023/01/05 13:32:26;;;;;;;4.82;1.08;;;;;;;;;;5077351;28;20024;-82
2023/01/05 13:35:21;;;;;;;5.80;1.10;;;;;;;;;;5077188;28;20036;-81
2023/01/05 13:38:20;;;;;;;2.55;0.85;;;;;;;;;;5077335;28;20070;-81
2023/01/05 13:41:02;;;;;;;3.53;0.90;;;;;;;;;;5051553;28;20047;-81
2023/01/05 13:43:56;;;;;;;3.00;1.00;;;;;;;;;;5076480;28;20085;-80
2023/01/05 13:46:49;;;;;;;5.25;1.00;;;;;;;;;;5059823;28;20085;-82
2023/01/05 13:49:27;;;;;;;3.28;1.00;;;;;;;;;;5058442;28;20465;-81
2023/01/05 13:51:56;;;;;;;3.83;1.15;;;;;;;;;;5076790;28;20028;-80
2023/01/05 13:54:29;;;;;;;3.22;1.02;;;;;;;;;;5076283;28;20035;-82
2023/01/05 13:56:55;;;;;;;1.77;0.63;;;;;;;;;;5076909;28;20039;-83
2023/01/05 13:59:28;;;;;;;3.08;0.80;;;;;;;;;;5076813;28;20028;-81
2023/01/05 14:01:55;;;;;;;5.00;1.27;;;;;;;;;;5059728;28;20021;-81
2023/01/05 14:04:28;;;;;;;2.58;0.70;;;;;;;;;;5058395;28;20029;-83
2023/01/05 14:06:58;;;;;;;3.00;0.95;;;;;;;;;;5077336;28;20039;-81
2023/01/05 14:09:37;;;;;;;3.33;1.10;;;;;;;;;;5077202;28;20539;-83
2023/01/05 14:12:14;;;;;;;5.45;1.38;;;;;;;;;;5076667;28;20021;-82
2023/01/05 14:15:03;;;;;;;2.17;0.90;;;;;;;;;;5076215;28;20025;-82
2023/01/05 14:17:54;;;;;;;5.15;1.10;;;;;;;;;;5075753;28;20035;-84
2023/01/05 14:20:45;;;;;;;3.97;1.15;;;;;;;;;;5058597;28;20029;-83
2023/01/05 14:23:25;;;;;;;3.03;1.08;;;;;;;;;;5076143;28;20024;-82
2023/01/05 14:26:11;;;;;;;4.05;1.20;;;;;;;;;;5076648;28;20020;-81
2023/01/05 14:28:44;;;;;;;5.05;1.50;;;;;;;;;;5060210;28;20068;-81
2023/01/05 14:31:12;;;;;;;3.45;1.27;;;;;;;;;;5062157;28;20024;-82
2023/01/05 14:34:06;;;;;;;3.65;1.08;;;;;;;;;;5079882;28;20492;-81
2023/01/05 14:36:34;;;;;;;3.17;1.30;;;;;;;;;;5060471;28;20444;-81
2023/01/05 14:39:03;;;;;;;5.32;1.40;;;;;;;;;;5079824;28;20020;-81
2023/01/05 14:41:30;;;;;;;3.97;1.00;;;;;;;;;;5079663;28;20020;-81
2023/01/05 14:44:04;;;;;;;3.53;1.15;;;;;;;;;;5061566;28;20047;-81
2023/01/05 14:46:50;;;;;;;3.00;1.02;;;;;;;;;;5061645;28;20151;-81
2023/01/05 14:49:28;;;;;;;3.00;1.00;;;;;;;;;;5079342;28;20555;-81
2023/01/05 14:51:56;;;;;;;1.55;0.90;;;;;;;;;;5061524;28;20398;-80
2023/01/05 14:54:40;;;;;;;2.47;0.98;;;;;;;;;;5079930;28;20539;-80
2023/01/05 14:57:23;;;;;;;4.10;1.20;;;;;;;;;;5080253;28;20482;-79
2023/01/05 14:59:54;;;;;;;3.25;1.10;;;;;;;;;;5079751;28;20021;-82
2023/01/05 15:02:25;;;;;;;3.42;0.93;;;;;;;;;;5080173;28;20383;-81
2023/01/05 15:04:57;;;;;;;2.65;1.08;;;;;;;;;;5061508;28;20031;-83
2023/01/05 15:07:44;;;;;;;2.15;1.13;;;;;;;;;;5079734;28;20032;-82
2023/01/05 15:10:26;;;;;;;6.60;1.23;;;;;;;;;;5079760;28;20062;-82
2023/01/05 15:13:13;;;;;;;3.15;1.13;;;;;;;;;;5079509;28;20020;-82
2023/01/05 15:16:01;;;;;;;3.50;1.58;;;;;;;;;;5079448;28;20046;-81
2023/01/05 15:18:45;;;;;;;3.20;1.40;;;;;;;;;;5061262;28;20382;-80
2023/01/05 15:21:44;;;;;;;1.98;1.10;;;;;;;;;;5078918;28;20020;-80
2023/01/05 15:24:26;;;;;;;3.38;1.00;;;;;;;;;;5061258;28;20060;-82
2023/01/05 15:27:03;;;;;;;3.45;1.30;;;;;;;;;;5079284;28;20025;-82
2023/01/05 15:29:53;;;;;;;2.33;1.13;;;;;;;;;;5079494;28;20459;-82
2023/01/05 15:32:25;;;;;;;2.22;1.20;;;;;;;;;;5079489;28;20034;-82
2023/01/05 15:34:56;;;;;;;2.10;1.05;;;;;;;;;;5079309;28;20025;-81
2023/01/05 15:37:28;;;;;;;2.30;1.00;;;;;;;;;;5079851;28;20016;-81
2023/01/05 15:39:55;;;;;;;2.10;0.90;;;;;;;;;;5060425;28;20024;-82